• Join FlightAware (Why Join?)
  • Login
  • US Flag 
02:32PM EDT


 

Airport Tracker/Info


-or-


 

Live Flight TrackerFlight Track Log ✈ EJA941 ✈ 24-Jun-2013 ✈ KMBS - KPTK

Flight Track Log - Related Links

Times and Time Zones

All times are in EDT time to prevent confusion due to time zone crossing. See the EJA941 flight status page for this flight to view local times or setup timezone preferences in your user account.

Time Position Orientation Groundspeed Altitude Reporting Facility
EDT Latitude Longitude Course Direction KTS MPH feet Rate Location/Type
02:26PM 43.1487 -83.7850 163° South  Level Estimated
02:27PM 43.0846 -83.7362 160° South  Level Estimated
02:28PM 43.0113 -83.7354 180° South  Level FlightAware Approximate
02:28PM 42.9628 -83.7467 132° Southeast 275 316 5,000  Level Cleveland Center
02:29PM 42.9380 -83.7345 180° South  Level FlightAware Approximate
02:29PM 42.8903 -83.7289 170° South 264 304 5,000  Level Cleveland Center
02:30PM 42.8821 -83.6698 114° Southeast  Level Estimated
02:30PM 42.8183 -83.6969 162° South 266 306 5,000  Level Cleveland Center
02:31PM 42.8261 -83.6051 132° Southeast  Level Estimated
02:31PM 42.7767 -83.6211 127° Southeast 276 318 5,000  Level Cleveland Center
02:32PM 42.7701 -83.5406 124° Southeast  Level Estimated
02:32PM 42.7350 -83.5344 123° Southeast 273 314 3,900  Level Cleveland Center
02:33PM 42.7141 -83.4762 129° Southeast  Level Estimated
02:33PM 42.7164 -83.4431 105° East 243 280 3,000  Level Cleveland Center
02:34PM 42.6656 -83.4205 132° Southeast  Level Estimated
02:34PM 42.7189 -83.3472 88° East 229 264 2,800  Level Cleveland Center
02:35PM 42.6731 -83.3422 175° South 169 194 2,100 -720 Descending Cleveland Center
02:36PM 42.6678 -83.3844 260° West 129 148 1,400 -780 Descending Cleveland Center
02:38PM 42.6500 -83.4167 132° Southeast  Level FlightAware Approximate
02:45PM 42.6656 -83.4205 132° Southeast  Level Estimated